sensor_id;sensor_type;location;lat;lon;timestamp;pressure;altitude;pressure_sealevel;temperature;humidity
56600;BME280;51832;48.152;11.530;2023-02-15T00:01:40;96774.00;;;5.99;67.22
56600;BME280;51832;48.152;11.530;2023-02-15T00:06:41;96783.13;;;5.61;67.43
56600;BME280;51832;48.152;11.530;2023-02-15T00:11:42;96783.38;;;5.84;67.27
56600;BME280;51832;48.152;11.530;2023-02-15T00:16:44;96781.47;;;5.52;67.56
56600;BME280;51832;48.152;11.530;2023-02-15T00:21:45;96773.41;;;5.80;66.57
56600;BME280;51832;48.152;11.530;2023-02-15T00:26:47;96778.13;;;5.68;67.82
56600;BME280;51832;48.152;11.530;2023-02-15T00:31:48;96775.09;;;5.89;66.84
56600;BME280;51832;48.152;11.530;2023-02-15T00:36:49;96774.03;;;5.65;67.00
56600;BME280;51832;48.152;11.530;2023-02-15T00:41:50;96778.72;;;5.96;65.94
56600;BME280;51832;48.152;11.530;2023-02-15T00:46:50;96774.16;;;6.06;65.83
56600;BME280;51832;48.152;11.530;2023-02-15T00:51:51;96764.19;;;5.51;66.83
56600;BME280;51832;48.152;11.530;2023-02-15T00:56:51;96751.78;;;5.53;66.03
56600;BME280;51832;48.152;11.530;2023-02-15T01:01:52;96746.06;;;5.42;64.13
56600;BME280;51832;48.152;11.530;2023-02-15T01:06:52;96743.94;;;5.03;68.16
56600;BME280;51832;48.152;11.530;2023-02-15T01:11:52;96744.44;;;4.81;69.45
56600;BME280;51832;48.152;11.530;2023-02-15T01:16:53;96734.78;;;4.99;67.72
56600;BME280;51832;48.152;11.530;2023-02-15T01:21:53;96725.63;;;5.29;66.85
56600;BME280;51832;48.152;11.530;2023-02-15T01:26:53;96721.16;;;5.21;66.49
56600;BME280;51832;48.152;11.530;2023-02-15T01:31:54;96729.50;;;5.83;64.78
56600;BME280;51832;48.152;11.530;2023-02-15T01:36:54;96715.34;;;5.35;64.91
56600;BME280;51832;48.152;11.530;2023-02-15T01:41:55;96727.06;;;5.23;65.67
56600;BME280;51832;48.152;11.530;2023-02-15T01:46:55;96713.00;;;5.16;66.62
56600;BME280;51832;48.152;11.530;2023-02-15T01:51:56;96710.69;;;5.55;62.87
56600;BME280;51832;48.152;11.530;2023-02-15T01:57:05;96705.31;;;5.65;63.66
56600;BME280;51832;48.152;11.530;2023-02-15T02:02:11;96710.03;;;5.53;64.22
56600;BME280;51832;48.152;11.530;2023-02-15T02:07:15;96704.03;;;5.69;62.92
56600;BME280;51832;48.152;11.530;2023-02-15T02:12:18;96694.00;;;4.98;64.22
56600;BME280;51832;48.152;11.530;2023-02-15T02:43:50;96687.03;;;5.57;63.51
56600;BME280;51832;48.152;11.530;2023-02-15T02:48:52;96681.53;;;5.18;64.42
56600;BME280;51832;48.152;11.530;2023-02-15T02:53:59;96691.97;;;5.18;64.30
56600;BME280;51832;48.152;11.530;2023-02-15T02:59:16;96681.94;;;5.39;63.90
56600;BME280;51832;48.152;11.530;2023-02-15T03:04:26;96677.47;;;5.23;64.41
56600;BME280;51832;48.152;11.530;2023-02-15T03:09:31;96677.47;;;5.15;63.79
56600;BME280;51832;48.152;11.530;2023-02-15T03:14:46;96682.72;;;5.31;64.64
56600;BME280;51832;48.152;11.530;2023-02-15T03:19:51;96682.28;;;5.52;63.42
56600;BME280;51832;48.152;11.530;2023-02-15T03:25:09;96679.31;;;5.47;63.91
56600;BME280;51832;48.152;11.530;2023-02-15T03:30:12;96680.59;;;5.35;64.14
56600;BME280;51832;48.152;11.530;2023-02-15T03:35:15;96680.38;;;5.20;64.57
56600;BME280;51832;48.152;11.530;2023-02-15T03:40:34;96676.63;;;5.15;64.23
56600;BME280;51832;48.152;11.530;2023-02-15T03:46:05;96680.28;;;5.30;65.54
56600;BME280;51832;48.152;11.530;2023-02-15T03:51:14;96685.66;;;5.36;64.47
56600;BME280;51832;48.152;11.530;2023-02-15T03:56:40;96680.06;;;7.95;78.15
56600;BME280;51832;48.152;11.530;2023-02-15T04:02:04;96676.72;;;10.13;63.12
56600;BME280;51832;48.152;11.530;2023-02-15T04:07:09;96663.25;;;9.08;54.15
56600;BME280;51832;48.152;11.530;2023-02-15T04:12:10;96671.75;;;7.91;55.01
56600;BME280;51832;48.152;11.530;2023-02-15T04:17:10;96670.50;;;6.78;57.18
56600;BME280;51832;48.152;11.530;2023-02-15T04:22:11;96683.84;;;6.20;60.12
56600;BME280;51832;48.152;11.530;2023-02-15T04:27:30;96691.91;;;5.44;62.18
56600;BME280;51832;48.152;11.530;2023-02-15T04:32:31;96691.84;;;5.27;63.37
56600;BME280;51832;48.152;11.530;2023-02-15T04:37:32;96689.47;;;5.08;65.05
56600;BME280;51832;48.152;11.530;2023-02-15T04:42:32;96685.28;;;5.15;65.67
56600;BME280;51832;48.152;11.530;2023-02-15T04:47:33;96679.75;;;5.18;65.88
56600;BME280;51832;48.152;11.530;2023-02-15T04:52:34;96673.97;;;4.98;65.68
56600;BME280;51832;48.152;11.530;2023-02-15T04:57:34;96677.88;;;4.69;66.25
56600;BME280;51832;48.152;11.530;2023-02-15T05:02:35;96679.25;;;4.81;67.84
56600;BME280;51832;48.152;11.530;2023-02-15T05:07:35;96678.09;;;4.75;67.89
56600;BME280;51832;48.152;11.530;2023-02-15T05:12:36;96680.56;;;4.77;67.37
56600;BME280;51832;48.152;11.530;2023-02-15T05:17:36;96680.41;;;4.78;67.17
56600;BME280;51832;48.152;11.530;2023-02-15T05:22:37;96672.97;;;4.65;67.24
56600;BME280;51832;48.152;11.530;2023-02-15T05:27:37;96677.91;;;4.17;69.33
56600;BME280;51832;48.152;11.530;2023-02-15T05:32:57;96689.19;;;4.51;66.99
56600;BME280;51832;48.152;11.530;2023-02-15T05:37:57;96698.84;;;4.33;70.82
56600;BME280;51832;48.152;11.530;2023-02-15T05:42:58;96692.25;;;4.21;70.29
56600;BME280;51832;48.152;11.530;2023-02-15T05:47:58;96686.28;;;4.28;70.26
56600;BME280;51832;48.152;11.530;2023-02-15T05:52:59;96677.47;;;4.47;68.95
56600;BME280;51832;48.152;11.530;2023-02-15T05:58:00;96689.09;;;4.61;68.49
56600;BME280;51832;48.152;11.530;2023-02-15T06:03:00;96698.03;;;4.58;66.93
56600;BME280;51832;48.152;11.530;2023-02-15T06:08:01;96696.81;;;4.19;66.55
56600;BME280;51832;48.152;11.530;2023-02-15T06:13:01;96696.94;;;4.17;68.19
56600;BME280;51832;48.152;11.530;2023-02-15T06:18:02;96695.91;;;4.10;67.36
56600;BME280;51832;48.152;11.530;2023-02-15T06:23:02;96694.53;;;4.24;68.42
56600;BME280;51832;48.152;11.530;2023-02-15T06:28:03;96703.03;;;4.26;68.58
56600;BME280;51832;48.152;11.530;2023-02-15T06:33:03;96712.78;;;4.24;68.85
56600;BME280;51832;48.152;11.530;2023-02-15T06:38:04;96713.41;;;4.18;69.67
56600;BME280;51832;48.152;11.530;2023-02-15T06:43:04;96713.41;;;4.44;68.04
56600;BME280;51832;48.152;11.530;2023-02-15T06:48:05;96718.34;;;4.47;66.90
56600;BME280;51832;48.152;11.530;2023-02-15T06:53:07;96709.09;;;4.78;65.07
56600;BME280;51832;48.152;11.530;2023-02-15T06:58:07;96718.63;;;4.44;65.52
56600;BME280;51832;48.152;11.530;2023-02-15T07:03:08;96718.44;;;4.63;66.00
56600;BME280;51832;48.152;11.530;2023-02-15T07:08:09;96718.94;;;4.67;64.38
56600;BME280;51832;48.152;11.530;2023-02-15T07:13:09;96715.06;;;4.71;65.15
56600;BME280;51832;48.152;11.530;2023-02-15T07:18:09;96716.41;;;4.75;65.70
56600;BME280;51832;48.152;11.530;2023-02-15T07:23:10;96717.09;;;4.85;65.15
56600;BME280;51832;48.152;11.530;2023-02-15T07:28:11;96700.63;;;4.50;65.78
56600;BME280;51832;48.152;11.530;2023-02-15T07:33:11;96715.31;;;4.59;65.54
56600;BME280;51832;48.152;11.530;2023-02-15T07:38:25;96715.06;;;4.45;65.98
56600;BME280;51832;48.152;11.530;2023-02-15T07:43:27;96710.22;;;4.50;67.59
56600;BME280;51832;48.152;11.530;2023-02-15T07:48:27;96712.97;;;4.74;67.28
56600;BME280;51832;48.152;11.530;2023-02-15T07:53:28;96708.66;;;4.65;66.38
56600;BME280;51832;48.152;11.530;2023-02-15T07:58:29;96703.06;;;4.78;66.40
56600;BME280;51832;48.152;11.530;2023-02-15T08:03:48;96694.97;;;4.97;66.04
56600;BME280;51832;48.152;11.530;2023-02-15T08:08:49;96693.06;;;5.07;65.86
56600;BME280;51832;48.152;11.530;2023-02-15T08:13:57;96696.53;;;4.82;65.43
56600;BME280;51832;48.152;11.530;2023-02-15T08:19:17;96696.03;;;5.12;64.75
56600;BME280;51832;48.152;11.530;2023-02-15T08:24:21;96687.69;;;5.09;65.48
56600;BME280;51832;48.152;11.530;2023-02-15T08:29:24;96693.41;;;5.04;65.84
56600;BME280;51832;48.152;11.530;2023-02-15T08:34:25;96696.38;;;5.17;64.63
56600;BME280;51832;48.152;11.530;2023-02-15T08:39:25;96692.91;;;5.59;63.02
56600;BME280;51832;48.152;11.530;2023-02-15T08:44:26;96686.88;;;5.75;63.46
56600;BME280;51832;48.152;11.530;2023-02-15T08:49:27;96694.09;;;5.81;63.41
56600;BME280;51832;48.152;11.530;2023-02-15T08:54:27;96682.31;;;6.66;60.86
56600;BME280;51832;48.152;11.530;2023-02-15T08:59:27;96690.31;;;6.56;60.57
56600;BME280;51832;48.152;11.530;2023-02-15T09:04:28;96693.03;;;6.95;58.79
56600;BME280;51832;48.152;11.530;2023-02-15T09:09:29;96687.50;;;7.29;57.53
56600;BME280;51832;48.152;11.530;2023-02-15T09:14:31;96687.88;;;7.18;56.51
56600;BME280;51832;48.152;11.530;2023-02-15T09:19:31;96693.47;;;7.46;56.25
56600;BME280;51832;48.152;11.530;2023-02-15T09:24:32;96689.22;;;7.45;56.12
56600;BME280;51832;48.152;11.530;2023-02-15T09:29:33;96678.31;;;7.64;56.67
56600;BME280;51832;48.152;11.530;2023-02-15T09:34:34;96675.72;;;7.56;56.82
56600;BME280;51832;48.152;11.530;2023-02-15T09:39:37;96669.56;;;7.95;54.93
56600;BME280;51832;48.152;11.530;2023-02-15T10:12:03;96673.06;;;9.14;52.22
56600;BME280;51832;48.152;11.530;2023-02-15T10:28:06;96668.94;;;9.41;53.80
56600;BME280;51832;48.152;11.530;2023-02-15T10:54:36;96648.94;;;10.25;53.86
56600;BME280;51832;48.152;11.530;2023-02-15T11:10:54;96630.50;;;9.55;56.99
56600;BME280;51832;48.152;11.530;2023-02-15T11:16:01;96622.28;;;9.86;56.04
56600;BME280;51832;48.152;11.530;2023-02-15T11:26:14;96594.97;;;10.08;55.36
56600;BME280;51832;48.152;11.530;2023-02-15T11:31:19;96601.00;;;10.02;55.65
56600;BME280;51832;48.152;11.530;2023-02-15T11:36:24;96579.69;;;10.46;54.22
56600;BME280;51832;48.152;11.530;2023-02-15T11:41:29;96588.91;;;11.04;52.78
56600;BME280;51832;48.152;11.530;2023-02-15T11:46:32;96570.06;;;11.01;53.00
56600;BME280;51832;48.152;11.530;2023-02-15T11:51:32;96563.97;;;11.00;53.41
56600;BME280;51832;48.152;11.530;2023-02-15T11:56:35;96560.94;;;11.03;52.63
56600;BME280;51832;48.152;11.530;2023-02-15T12:01:45;96552.94;;;11.38;51.98
56600;BME280;51832;48.152;11.530;2023-02-15T12:06:54;96544.88;;;11.72;51.33
56600;BME280;51832;48.152;11.530;2023-02-15T12:12:32;96543.44;;;11.44;51.85
56600;BME280;51832;48.152;11.530;2023-02-15T12:17:35;96538.31;;;12.61;48.42
56600;BME280;51832;48.152;11.530;2023-02-15T12:22:39;96529.31;;;11.84;50.20
56600;BME280;51832;48.152;11.530;2023-02-15T12:27:43;96524.59;;;12.26;49.00
56600;BME280;51832;48.152;11.530;2023-02-15T12:32:55;96513.97;;;13.03;47.32
56600;BME280;51832;48.152;11.530;2023-02-15T12:38:03;96504.75;;;13.57;45.76
56600;BME280;51832;48.152;11.530;2023-02-15T12:43:04;96498.78;;;13.93;44.59
56600;BME280;51832;48.152;11.530;2023-02-15T12:53:22;96497.41;;;14.09;43.81
56600;BME280;51832;48.152;11.530;2023-02-15T12:58:25;96490.22;;;14.16;43.25
56600;BME280;51832;48.152;11.530;2023-02-15T13:03:26;96487.50;;;14.47;42.07
56600;BME280;51832;48.152;11.530;2023-02-15T13:08:44;96480.81;;;13.95;43.00
56600;BME280;51832;48.152;11.530;2023-02-15T13:13:59;96479.41;;;14.90;41.33
56600;BME280;51832;48.152;11.530;2023-02-15T13:19:07;96467.59;;;14.20;41.89
56600;BME280;51832;48.152;11.530;2023-02-15T13:24:22;96460.97;;;15.14;40.86
56600;BME280;51832;48.152;11.530;2023-02-15T13:29:28;96451.47;;;15.36;39.72
56600;BME280;51832;48.152;11.530;2023-02-15T13:34:35;96452.34;;;15.72;39.09
56600;BME280;51832;48.152;11.530;2023-02-15T13:39:47;96455.50;;;16.04;39.07
56600;BME280;51832;48.152;11.530;2023-02-15T13:50:28;96454.09;;;16.13;38.44
56600;BME280;51832;48.152;11.530;2023-02-15T13:55:55;96458.28;;;15.97;39.54
56600;BME280;51832;48.152;11.530;2023-02-15T14:01:12;96459.63;;;16.46;39.04
56600;BME280;51832;48.152;11.530;2023-02-15T14:17:00;96461.59;;;19.67;31.95
56600;BME280;51832;48.152;11.530;2023-02-15T14:22:36;96451.56;;;21.87;28.27
56600;BME280;51832;48.152;11.530;2023-02-15T14:59:23;96444.41;;;33.45;14.58
56600;BME280;51832;48.152;11.530;2023-02-15T15:04:36;96435.38;;;32.02;15.65
56600;BME280;51832;48.152;11.530;2023-02-15T15:09:42;96431.81;;;31.90;15.42
56600;BME280;51832;48.152;11.530;2023-02-15T15:14:45;96423.25;;;32.45;15.00
56600;BME280;51832;48.152;11.530;2023-02-15T15:24:48;96426.63;;;30.75;16.25
56600;BME280;51832;48.152;11.530;2023-02-15T15:29:48;96435.38;;;31.19;15.99
56600;BME280;51832;48.152;11.530;2023-02-15T15:35:15;96438.75;;;30.40;16.55
56600;BME280;51832;48.152;11.530;2023-02-15T15:56:15;96447.94;;;28.84;17.92
56600;BME280;51832;48.152;11.530;2023-02-15T16:01:26;96445.28;;;29.01;17.81
56600;BME280;51832;48.152;11.530;2023-02-15T16:06:31;96442.47;;;28.13;18.01
56600;BME280;51832;48.152;11.530;2023-02-15T16:11:32;96439.91;;;26.13;20.19
56600;BME280;51832;48.152;11.530;2023-02-15T16:16:32;96438.34;;;25.42;21.11
56600;BME280;51832;48.152;11.530;2023-02-15T16:21:35;96452.34;;;23.96;22.94
56600;BME280;51832;48.152;11.530;2023-02-15T16:31:37;96472.97;;;20.69;27.03
56600;BME280;51832;48.152;11.530;2023-02-15T16:36:37;96478.16;;;18.55;30.59
56600;BME280;51832;48.152;11.530;2023-02-15T16:41:38;96474.53;;;16.47;34.99
56600;BME280;51832;48.152;11.530;2023-02-15T16:46:43;96494.88;;;15.23;37.23
56600;BME280;51832;48.152;11.530;2023-02-15T16:51:55;96490.81;;;14.18;40.53
56600;BME280;51832;48.152;11.530;2023-02-15T16:56:57;96492.31;;;14.50;39.57
56600;BME280;51832;48.152;11.530;2023-02-15T17:01:58;96481.59;;;13.52;41.07
56600;BME280;51832;48.152;11.530;2023-02-15T17:07:25;96491.47;;;12.43;44.39
56600;BME280;51832;48.152;11.530;2023-02-15T17:12:45;96497.56;;;12.95;44.22
56600;BME280;51832;48.152;11.530;2023-02-15T17:17:46;96500.19;;;12.50;44.18
56600;BME280;51832;48.152;11.530;2023-02-15T17:22:46;96510.50;;;12.58;44.33
56600;BME280;51832;48.152;11.530;2023-02-15T17:27:51;96510.16;;;12.41;45.61
56600;BME280;51832;48.152;11.530;2023-02-15T17:32:58;96511.34;;;12.45;45.78
56600;BME280;51832;48.152;11.530;2023-02-15T17:38:05;96516.88;;;12.37;46.36
56600;BME280;51832;48.152;11.530;2023-02-15T17:43:06;96523.75;;;12.32;46.42
56600;BME280;51832;48.152;11.530;2023-02-15T17:48:12;96518.31;;;11.48;48.84
56600;BME280;51832;48.152;11.530;2023-02-15T17:53:18;96512.59;;;11.37;49.67
56600;BME280;51832;48.152;11.530;2023-02-15T17:58:19;96518.75;;;11.78;47.92
56600;BME280;51832;48.152;11.530;2023-02-15T18:03:20;96524.19;;;12.22;58.69
56600;BME280;51832;48.152;11.530;2023-02-15T18:08:39;96526.00;;;11.62;49.53
56600;BME280;51832;48.152;11.530;2023-02-15T18:13:59;96529.50;;;11.83;48.97
56600;BME280;51832;48.152;11.530;2023-02-15T18:19:01;96536.88;;;11.13;51.15
56600;BME280;51832;48.152;11.530;2023-02-15T18:24:03;96527.59;;;10.69;51.92
56600;BME280;51832;48.152;11.530;2023-02-15T18:29:04;96528.44;;;10.08;54.23
56600;BME280;51832;48.152;11.530;2023-02-15T18:34:05;96544.38;;;10.62;53.32
56600;BME280;51832;48.152;11.530;2023-02-15T18:39:22;96541.88;;;10.54;51.50
56600;BME280;51832;48.152;11.530;2023-02-15T18:44:25;96537.97;;;10.43;54.15
56600;BME280;51832;48.152;11.530;2023-02-15T18:49:25;96525.66;;;10.91;52.85
56600;BME280;51832;48.152;11.530;2023-02-15T18:54:26;96530.25;;;10.35;54.49
56600;BME280;51832;48.152;11.530;2023-02-15T18:59:27;96533.34;;;10.45;54.33
56600;BME280;51832;48.152;11.530;2023-02-15T19:04:30;96534.78;;;10.48;54.62
56600;BME280;51832;48.152;11.530;2023-02-15T19:09:32;96537.66;;;10.59;53.89
56600;BME280;51832;48.152;11.530;2023-02-15T19:14:33;96539.75;;;10.08;55.46
56600;BME280;51832;48.152;11.530;2023-02-15T19:19:33;96550.63;;;10.26;55.07
56600;BME280;51832;48.152;11.530;2023-02-15T19:24:38;96540.97;;;9.56;57.92
56600;BME280;51832;48.152;11.530;2023-02-15T19:29:39;96539.22;;;9.91;56.64
56600;BME280;51832;48.152;11.530;2023-02-15T19:34:40;96540.50;;;10.02;56.23
56600;BME280;51832;48.152;11.530;2023-02-15T19:39:40;96535.44;;;10.01;55.90
56600;BME280;51832;48.152;11.530;2023-02-15T19:44:41;96551.22;;;9.51;57.80
56600;BME280;51832;48.152;11.530;2023-02-15T19:49:42;96553.31;;;9.20;57.01
56600;BME280;51832;48.152;11.530;2023-02-15T19:54:43;96551.13;;;9.45;57.86
56600;BME280;51832;48.152;11.530;2023-02-15T19:59:44;96542.13;;;9.33;58.07
56600;BME280;51832;48.152;11.530;2023-02-15T20:04:45;96545.75;;;9.32;59.42
56600;BME280;51832;48.152;11.530;2023-02-15T20:09:45;96538.78;;;9.39;58.34
56600;BME280;51832;48.152;11.530;2023-02-15T20:14:45;96540.50;;;9.10;61.00
56600;BME280;51832;48.152;11.530;2023-02-15T20:19:46;96530.09;;;9.02;60.98
56600;BME280;51832;48.152;11.530;2023-02-15T20:24:46;96523.00;;;9.60;58.02
56600;BME280;51832;48.152;11.530;2023-02-15T20:29:47;96532.28;;;9.56;57.85
56600;BME280;51832;48.152;11.530;2023-02-15T20:34:49;96519.72;;;9.58;57.92
56600;BME280;51832;48.152;11.530;2023-02-15T20:39:50;96519.81;;;9.65;57.18
56600;BME280;51832;48.152;11.530;2023-02-15T20:44:51;96517.28;;;9.78;58.16
56600;BME280;51832;48.152;11.530;2023-02-15T20:49:51;96509.56;;;9.48;56.56
56600;BME280;51832;48.152;11.530;2023-02-15T20:54:53;96522.94;;;9.53;58.14
56600;BME280;51832;48.152;11.530;2023-02-15T20:59:53;96512.09;;;9.63;58.26
56600;BME280;51832;48.152;11.530;2023-02-15T21:04:54;96522.38;;;9.37;59.29
56600;BME280;51832;48.152;11.530;2023-02-15T21:09:54;96528.56;;;9.50;59.13
56600;BME280;51832;48.152;11.530;2023-02-15T21:14:55;96524.75;;;9.53;58.72
56600;BME280;51832;48.152;11.530;2023-02-15T21:19:56;96531.84;;;9.16;59.97
56600;BME280;51832;48.152;11.530;2023-02-15T21:24:56;96532.06;;;9.36;59.95
56600;BME280;51832;48.152;11.530;2023-02-15T21:29:57;96525.16;;;9.29;59.69
56600;BME280;51832;48.152;11.530;2023-02-15T21:34:57;96532.94;;;9.22;59.65
56600;BME280;51832;48.152;11.530;2023-02-15T21:39:58;96531.41;;;8.77;60.27
56600;BME280;51832;48.152;11.530;2023-02-15T21:44:58;96535.81;;;8.55;62.14
56600;BME280;51832;48.152;11.530;2023-02-15T21:50:20;96531.44;;;8.47;62.02
56600;BME280;51832;48.152;11.530;2023-02-15T21:55:39;96539.47;;;8.16;63.78
56600;BME280;51832;48.152;11.530;2023-02-15T22:00:40;96531.06;;;7.69;65.52
56600;BME280;51832;48.152;11.530;2023-02-15T22:05:40;96527.84;;;8.34;66.42
56600;BME280;51832;48.152;11.530;2023-02-15T22:10:41;96530.19;;;8.43;64.14
56600;BME280;51832;48.152;11.530;2023-02-15T22:15:42;96533.47;;;7.93;63.91
56600;BME280;51832;48.152;11.530;2023-02-15T22:20:46;96520.03;;;8.26;62.57
56600;BME280;51832;48.152;11.530;2023-02-15T22:25:58;96518.88;;;8.13;62.62
56600;BME280;51832;48.152;11.530;2023-02-15T22:31:02;96506.03;;;8.04;62.98
56600;BME280;51832;48.152;11.530;2023-02-15T22:36:03;96488.19;;;7.84;64.01
56600;BME280;51832;48.152;11.530;2023-02-15T22:41:03;96484.66;;;7.63;64.56
56600;BME280;51832;48.152;11.530;2023-02-15T22:46:09;96492.94;;;7.29;65.84
56600;BME280;51832;48.152;11.530;2023-02-15T22:51:13;96481.50;;;7.30;65.96
56600;BME280;51832;48.152;11.530;2023-02-15T23:01:43;96471.31;;;6.89;67.74
56600;BME280;51832;48.152;11.530;2023-02-15T23:06:44;96470.09;;;6.77;66.71
56600;BME280;51832;48.152;11.530;2023-02-15T23:11:45;96469.91;;;6.78;67.13
56600;BME280;51832;48.152;11.530;2023-02-15T23:16:46;96470.91;;;6.77;66.26
56600;BME280;51832;48.152;11.530;2023-02-15T23:21:47;96475.22;;;6.93;65.50
56600;BME280;51832;48.152;11.530;2023-02-15T23:26:48;96483.00;;;7.47;63.23
56600;BME280;51832;48.152;11.530;2023-02-15T23:31:51;96471.22;;;7.43;63.08
56600;BME280;51832;48.152;11.530;2023-02-15T23:36:52;96481.56;;;7.59;62.57
56600;BME280;51832;48.152;11.530;2023-02-15T23:41:52;96479.50;;;7.69;62.22
56600;BME280;51832;48.152;11.530;2023-02-15T23:46:53;96474.72;;;7.73;61.63
56600;BME280;51832;48.152;11.530;2023-02-15T23:51:56;96472.09;;;7.58;62.26
56600;BME280;51832;48.152;11.530;2023-02-15T23:56:59;96463.84;;;7.46;62.12
